Time;durP1;ratioP1;P1;durP2;ratioP2;P2;SDS_P1;SDS_P2;PMS_P1;PMS_P2;Temp;Humidity;BMP_temperature;BMP_pressure;BME280_temperature;BME280_humidity;BME280_pressure;Samples;Min_cycle;Max_cycle;Signal;HPM_P1;HPM_P2
2022/12/10 00:02:17;;;;;;;77.20;15.10;;;;;;;-0.40;100.00;95152.61;105515;1288;22481;-91
2022/12/10 00:04:48;;;;;;;74.90;15.80;;;;;;;-0.42;100.00;95154.12;105537;1304;24375;-91
2022/12/10 00:07:24;;;;;;;54.80;15.40;;;;;;;-0.41;100.00;95154.02;104598;1303;1327483;-91
2022/12/10 00:09:52;;;;;;;81.10;14.10;;;;;;;-0.40;100.00;95155.64;105670;1304;109156;-90
2022/12/10 00:12:21;;;;;;;72.80;13.20;;;;;;;-0.40;100.00;95154.91;105739;1279;22580;-91
2022/12/10 00:14:50;;;;;;;57.60;11.70;;;;;;;-0.42;100.00;95153.19;105813;1296;22549;-91
2022/12/10 00:17:21;;;;;;;86.90;14.70;;;;;;;-0.41;100.00;95148.77;105786;1302;24055;-91
2022/12/10 00:19:50;;;;;;;79.50;15.00;;;;;;;-0.40;100.00;95148.20;104401;1295;1832269;-91
2022/12/10 00:22:20;;;;;;;75.90;18.00;;;;;;;-0.41;100.00;95150.79;105777;1294;22496;-91
2022/12/10 00:24:49;;;;;;;72.80;14.00;;;;;;;-0.41;100.00;95155.06;105777;1304;22459;-91
2022/12/10 00:27:18;;;;;;;60.30;14.10;;;;;;;-0.41;100.00;95155.84;105810;1304;26103;-91
2022/12/10 00:29:47;;;;;;;57.70;9.40;;;;;;;-0.40;100.00;95159.55;105676;1303;25879;-91
2022/12/10 00:32:15;;;;;;;54.90;13.10;;;;;;;-0.40;100.00;95166.63;105691;1299;24333;-91
2022/12/10 00:34:44;;;;;;;75.50;14.50;;;;;;;-0.41;100.00;95167.66;105551;1288;24554;-91
2022/12/10 00:37:18;;;;;;;39.40;12.00;;;;;;;-0.42;100.00;95167.34;105694;1304;26571;-91
2022/12/10 00:39:46;;;;;;;50.20;13.40;;;;;;;-0.44;100.00;95165.89;105599;1296;39359;-91
2022/12/10 00:42:15;;;;;;;85.30;16.30;;;;;;;-0.44;100.00;95169.11;105593;1304;24972;-91
2022/12/10 00:44:44;;;;;;;81.70;12.90;;;;;;;-0.46;100.00;95168.79;105790;1282;25372;-91
2022/12/10 00:47:13;;;;;;;130.30;16.50;;;;;;;-0.49;100.00;95171.46;105696;1304;22465;-91
2022/12/10 00:49:45;;;;;;;79.30;14.00;;;;;;;-0.51;100.00;95171.98;105603;1294;23568;-91
2022/12/10 00:52:14;;;;;;;99.00;14.20;;;;;;;-0.51;100.00;95173.89;105762;1298;22524;-92
2022/12/10 00:54:47;;;;;;;154.10;20.10;;;;;;;-0.53;100.00;95181.79;105808;1296;22478;-90
2022/12/10 00:57:18;;;;;;;63.70;11.90;;;;;;;-0.54;100.00;95179.29;105717;1304;22509;-91
2022/12/10 00:59:47;;;;;;;64.40;13.30;;;;;;;-0.56;100.00;95181.02;105664;1282;65015;-91
2022/12/10 01:02:16;;;;;;;59.30;13.90;;;;;;;-0.58;100.00;95183.42;105819;1286;25265;-91
2022/12/10 01:04:44;;;;;;;83.20;14.30;;;;;;;-0.63;100.00;95184.44;105666;1304;22922;-92
2022/12/10 01:07:13;;;;;;;62.80;11.70;;;;;;;-0.64;100.00;95177.80;105757;1304;22508;-91
2022/12/10 01:09:42;;;;;;;50.60;14.10;;;;;;;-0.67;100.00;95182.73;103890;1304;2479687;-91
2022/12/10 01:12:10;;;;;;;55.40;11.30;;;;;;;-0.69;100.00;95180.50;105797;1304;26752;-92
2022/12/10 01:14:39;;;;;;;85.80;14.40;;;;;;;-0.71;100.00;95182.23;105684;1279;22497;-91
2022/12/10 01:17:07;;;;;;;51.40;11.40;;;;;;;-0.73;100.00;95186.48;105751;1285;27373;-92
2022/12/10 01:19:36;;;;;;;82.40;13.30;;;;;;;-0.74;100.00;95190.59;104404;1304;1765681;-91
2022/12/10 01:22:05;;;;;;;82.40;13.50;;;;;;;-0.74;100.00;95191.95;105738;1302;22648;-91
2022/12/10 01:24:35;;;;;;;84.80;12.40;;;;;;;-0.73;100.00;95181.75;105824;1302;22570;-91
2022/12/10 01:27:06;;;;;;;66.10;13.20;;;;;;;-0.74;100.00;95177.63;105616;1301;24009;-91
2022/12/10 01:29:34;;;;;;;96.90;14.10;;;;;;;-0.73;100.00;95182.69;104053;1303;2059525;-91
2022/12/10 01:32:03;;;;;;;86.10;14.20;;;;;;;-0.74;100.00;95189.18;105527;1294;22550;-92
2022/12/10 01:34:34;;;;;;;106.90;15.60;;;;;;;-0.72;100.00;95187.69;105596;1296;22493;-91
2022/12/10 01:37:11;;;;;;;76.80;12.10;;;;;;;-0.71;100.00;95189.06;105565;1296;22495;-92
2022/12/10 01:39:40;;;;;;;72.70;14.60;;;;;;;-0.71;100.00;95197.44;105517;1306;29897;-91
2022/12/10 01:42:13;;;;;;;46.20;13.50;;;;;;;-0.70;100.00;95205.06;105565;1297;22493;-92
2022/12/10 01:45:11;;;;;;;36.60;15.50;;;;;;;-0.64;100.00;95211.11;105543;1305;22470;-92
2022/12/10 01:47:41;;;;;;;22.50;13.30;;;;;;;-0.58;100.00;95211.34;105517;1303;101118;-91
2022/12/10 01:50:09;;;;;;;20.10;12.80;;;;;;;-0.57;100.00;95206.51;105580;1276;23729;-92
2022/12/10 01:52:42;;;;;;;;;;;;;;;-0.59;100.00;95204.92;105572;1305;24257;-91
2022/12/10 01:55:39;;;;;;;15.50;10.80;;;;;;;-0.55;100.00;95199.88;105542;1305;22454;-92
2022/12/10 01:58:13;;;;;;;16.60;10.70;;;;;;;-0.53;100.00;95205.69;105500;1304;42858;-91
2022/12/10 02:00:54;;;;;;;15.30;10.40;;;;;;;-0.54;100.00;95205.30;105571;1296;22996;-91
2022/12/10 02:03:36;;;;;;;15.00;9.10;;;;;;;-0.56;100.00;95205.54;105541;1304;22529;-93
2022/12/10 02:06:13;;;;;;;15.40;10.20;;;;;;;-0.59;100.00;95206.68;105562;1306;25511;-92
2022/12/10 02:08:52;;;;;;;13.70;8.90;;;;;;;-0.61;100.00;95208.76;105410;1287;150423;-92
2022/12/10 02:11:29;;;;;;;10.10;6.50;;;;;;;-0.64;100.00;95214.70;105594;1297;22526;-92
2022/12/10 02:14:04;;;;;;;14.90;8.90;;;;;;;-0.66;100.00;95212.55;105524;1305;22558;-92
2022/12/10 02:16:38;;;;;;;13.50;9.30;;;;;;;-0.65;100.00;95203.61;105533;1297;22475;-91
2022/12/10 02:19:21;;;;;;;18.90;11.40;;;;;;;-0.64;100.00;95209.25;101510;1303;5407661;-92
2022/12/10 02:21:53;;;;;;;19.40;12.20;;;;;;;-0.61;100.00;95211.67;105593;1298;22466;-91
2022/12/10 02:24:28;;;;;;;15.50;9.40;;;;;;;-0.58;100.00;95205.30;105504;1305;22500;-91
2022/12/10 02:27:03;;;;;;;16.40;9.70;;;;;;;-0.57;100.00;95203.11;105540;1288;24475;-91
2022/12/10 02:29:31;;;;;;;12.70;8.20;;;;;;;-0.56;100.00;95204.81;105477;1287;39433;-91
2022/12/10 02:32:04;;;;;;;10.10;7.30;;;;;;;-0.57;100.00;95206.19;105563;1302;22486;-91
2022/12/10 02:34:39;;;;;;;10.60;7.60;;;;;;;-0.60;100.00;95216.52;105561;1303;22512;-91
2022/12/10 02:37:11;;;;;;;10.20;6.70;;;;;;;-0.58;100.00;95219.14;105561;1303;22796;-91
2022/12/10 02:39:47;;;;;;;9.60;6.60;;;;;;;-0.55;100.00;95223.57;105725;1295;58410;-91
2022/12/10 02:42:19;;;;;;;10.80;7.10;;;;;;;-0.53;100.00;95227.50;105740;1302;22465;-92
2022/12/10 02:44:49;;;;;;;9.80;6.60;;;;;;;-0.49;100.00;95232.21;105702;1303;22476;-90
2022/12/10 02:47:18;;;;;;;;;;;;;;;-0.50;100.00;95233.00;105662;1292;22455;-91
2022/12/10 02:49:50;;;;;;;7.60;5.40;;;;;;;-0.52;100.00;95230.84;105491;1303;35007;-91
2022/12/10 02:52:21;;;;;;;7.70;5.50;;;;;;;-0.54;100.00;95240.55;105649;1281;23227;-91
2022/12/10 02:54:50;;;;;;;9.60;6.20;;;;;;;-0.56;100.00;95241.09;105680;1303;22461;-91
2022/12/10 02:57:34;;;;;;;8.50;6.40;;;;;;;-0.60;100.00;95241.77;105757;1304;22440;-91
2022/12/10 03:00:16;;;;;;;9.10;6.30;;;;;;;-0.63;100.00;95246.27;105707;1304;49089;-91
2022/12/10 03:03:06;;;;;;;8.10;5.10;;;;;;;-0.65;100.00;95243.27;105638;1302;22843;-91
2022/12/10 03:05:46;;;;;;;7.70;5.60;;;;;;;-0.67;100.00;95244.86;105591;1293;25239;-91
2022/12/10 03:08:18;;;;;;;6.80;4.90;;;;;;;-0.69;100.00;95250.98;105592;1295;40080;-92
2022/12/10 03:11:00;;;;;;;8.60;5.80;;;;;;;-0.68;100.00;95258.23;105669;1303;22642;-91
2022/12/10 03:13:38;;;;;;;7.70;5.80;;;;;;;-0.68;100.00;95256.45;105805;1302;24218;-91
2022/12/10 03:16:07;;;;;;;8.90;6.50;;;;;;;-0.69;100.00;95251.77;105667;1303;25549;-91
2022/12/10 03:18:37;;;;;;;10.90;6.80;;;;;;;-0.68;100.00;95246.98;105639;1286;109908;-91
2022/12/10 03:21:09;;;;;;;11.30;7.70;;;;;;;-0.64;100.00;95251.19;105669;1302;22509;-90
2022/12/10 03:23:41;;;;;;;11.60;8.40;;;;;;;-0.59;100.00;95249.95;105834;1287;22507;-90
2022/12/10 03:26:10;;;;;;;13.20;9.60;;;;;;;-0.53;100.00;95246.13;105666;1289;22529;-91
2022/12/10 03:28:45;;;;;;;11.50;8.60;;;;;;;-0.48;100.00;95247.39;105747;1302;24166;-90
2022/12/10 03:31:15;;;;;;;12.30;8.30;;;;;;;-0.45;100.00;95259.08;105828;1302;27533;-91
2022/12/10 03:33:54;;;;;;;11.80;8.40;;;;;;;-0.41;100.00;95270.33;105674;1294;22464;-91
2022/12/10 03:36:27;;;;;;;12.20;9.60;;;;;;;-0.37;100.00;95270.53;105799;1295;22639;-90
2022/12/10 03:38:57;;;;;;;10.00;7.60;;;;;;;-0.33;100.00;95276.83;105352;1290;163483;-91
2022/12/10 03:41:25;;;;;;;10.60;8.00;;;;;;;-0.33;100.00;95287.86;105558;1296;22475;-92
2022/12/10 03:43:55;;;;;;;10.90;8.40;;;;;;;-0.33;100.00;95284.54;105560;1281;27104;-90
2022/12/10 03:46:24;;;;;;;;;;;;;;;-0.28;100.00;95281.98;105546;1304;23805;-90
2022/12/10 03:48:54;;;;;;;10.20;7.10;;;;;;;-0.26;100.00;95284.89;105533;1279;42129;-90
2022/12/10 03:51:24;;;;;;;12.50;8.10;;;;;;;-0.31;100.00;95289.20;105797;1301;22468;-91
2022/12/10 03:53:52;;;;;;;12.90;8.50;;;;;;;-0.42;100.00;95288.13;105675;1302;22472;-91
2022/12/10 03:56:22;;;;;;;10.90;7.20;;;;;;;-0.50;100.00;95288.06;105800;1288;23141;-90
2022/12/10 03:58:53;;;;;;;11.40;8.20;;;;;;;-0.52;100.00;95280.91;105653;1294;74758;-90
2022/12/10 04:01:23;;;;;;;12.90;8.70;;;;;;;-0.49;100.00;95283.86;105795;1292;22478;-90
2022/12/10 04:03:53;;;;;;;10.50;7.60;;;;;;;-0.46;100.00;95283.28;105610;1303;22776;-89
2022/12/10 04:06:22;;;;;;;11.40;7.90;;;;;;;-0.45;100.00;95293.02;105808;1304;25347;-90
2022/12/10 04:08:52;;;;;;;12.80;8.10;;;;;;;-0.50;100.00;95302.39;105707;1303;39672;-91
2022/12/10 04:11:20;;;;;;;11.30;6.50;;;;;;;-0.55;100.00;95300.97;105789;1288;22454;-91
2022/12/10 04:16:40;;;;;;;9.50;6.30;;;;;;;-0.62;100.00;95305.36;105734;1303;25225;-89
2022/12/10 04:19:12;;;;;;;9.70;6.90;;;;;;;-0.60;100.00;95308.39;105527;1301;53789;-90
2022/12/10 04:27:24;;;;;;;11.20;6.40;;;;;;;-0.59;100.00;95312.62;105734;1304;23780;-89
2022/12/10 04:29:54;;;;;;;11.40;8.10;;;;;;;-0.61;100.00;95315.88;104288;1302;2012515;-90
2022/12/10 04:32:32;;;;;;;9.80;6.90;;;;;;;-0.62;100.00;95311.54;105796;1302;25379;-90
2022/12/10 04:35:01;;;;;;;7.40;5.40;;;;;;;-0.59;100.00;95305.02;105717;1297;22478;-91
2022/12/10 04:37:30;;;;;;;7.70;5.50;;;;;;;-0.54;100.00;95307.77;105682;1295;22712;-89
2022/12/10 04:39:59;;;;;;;10.70;7.60;;;;;;;-0.48;100.00;95304.80;103098;1283;1912625;-90
2022/12/10 04:42:32;;;;;;;9.30;6.70;;;;;;;-0.45;100.00;95298.21;105813;1302;25248;-90
2022/12/10 04:45:03;;;;;;;9.40;7.10;;;;;;;-0.44;100.00;95296.00;105629;1282;25627;-90
2022/12/10 04:47:32;;;;;;;10.90;7.30;;;;;;;-0.42;100.00;95292.66;105684;1303;22471;-89
2022/12/10 04:50:00;;;;;;;11.90;9.40;;;;;;;-0.40;100.00;95298.94;105753;1302;27672;-90
2022/12/10 04:52:30;;;;;;;11.80;8.60;;;;;;;-0.40;100.00;95301.38;105796;1304;24266;-90
2022/12/10 04:54:59;;;;;;;11.00;8.10;;;;;;;-0.40;100.00;95307.31;105813;1285;23915;-90
2022/12/10 04:57:30;;;;;;;10.50;7.10;;;;;;;-0.41;100.00;95322.45;105771;1303;22043;-90
2022/12/10 05:00:01;;;;;;;11.20;7.70;;;;;;;-0.43;100.00;95329.76;104304;1304;2015661;-90
2022/12/10 05:02:30;;;;;;;11.80;7.60;;;;;;;-0.47;100.00;95344.44;105681;1303;23702;-90
2022/12/10 05:04:59;;;;;;;11.90;8.20;;;;;;;-0.49;100.00;95346.81;105790;1304;22503;-89
2022/12/10 05:07:27;;;;;;;12.60;8.00;;;;;;;-0.46;100.00;95348.05;105772;1303;25234;-90
2022/12/10 05:09:56;;;;;;;12.30;8.20;;;;;;;-0.44;100.00;95345.77;103810;1288;2590218;-90
2022/12/10 05:12:28;;;;;;;14.00;9.70;;;;;;;-0.44;100.00;95345.36;105815;1302;22636;-90
2022/12/10 05:14:57;;;;;;;14.00;9.80;;;;;;;-0.49;100.00;95353.37;105580;1296;22522;-89
2022/12/10 05:17:26;;;;;;;14.30;9.80;;;;;;;-0.53;100.00;95365.29;105735;1304;23071;-90
2022/12/10 05:19:55;;;;;;;14.40;10.40;;;;;;;-0.55;100.00;95371.77;104225;1287;1732006;-90
2022/12/10 05:25:12;;;;;;;13.10;7.70;;;;;;;-0.55;100.00;95382.17;105525;1297;22476;-90
2022/12/10 05:27:46;;;;;;;14.50;8.70;;;;;;;-0.59;100.00;95392.78;103638;1297;2581054;-90
2022/12/10 05:30:17;;;;;;;15.10;8.70;;;;;;;-0.62;100.00;95396.19;105495;1296;47142;-90
2022/12/10 05:32:45;;;;;;;9.40;6.30;;;;;;;-0.64;100.00;95395.11;105545;1304;22482;-90
2022/12/10 05:35:18;;;;;;;11.50;8.00;;;;;;;-0.66;100.00;95400.23;105418;1305;22481;-90
2022/12/10 05:37:46;;;;;;;12.00;8.00;;;;;;;-0.66;100.00;95409.19;105514;1304;32581;-89
2022/12/10 05:40:15;;;;;;;12.10;8.40;;;;;;;-0.66;100.00;95412.58;105584;1304;51370;-90
2022/12/10 05:42:44;;;;;;;14.50;9.40;;;;;;;-0.66;100.00;95410.75;105796;1296;23158;-89
2022/12/10 05:45:12;;;;;;;12.90;9.00;;;;;;;-0.66;100.00;95407.98;105743;1304;22526;-90
2022/12/10 05:47:41;;;;;;;11.90;7.60;;;;;;;-0.66;100.00;95396.85;105533;1304;34195;-90
2022/12/10 05:50:11;;;;;;;10.10;6.30;;;;;;;-0.65;100.00;95389.22;105538;1304;91278;-90
2022/12/10 05:52:42;;;;;;;8.70;6.20;;;;;;;-0.65;100.00;95385.16;105712;1302;22534;-90
2022/12/10 05:55:11;;;;;;;8.80;6.20;;;;;;;-0.64;100.00;95374.98;105597;1301;22468;-90
2022/12/10 05:57:40;;;;;;;8.70;5.70;;;;;;;-0.60;100.00;95367.46;105766;1295;42082;-85
2022/12/10 06:00:11;;;;;;;9.10;6.30;;;;;;;-0.57;100.00;95357.88;103944;1303;2263922;-90
2022/12/10 06:02:40;;;;;;;10.20;6.30;;;;;;;-0.54;100.00;95365.38;105811;1296;22479;-88
2022/12/10 06:05:13;;;;;;;8.90;6.30;;;;;;;-0.49;100.00;95369.25;105601;1302;22456;-89
2022/12/10 06:07:42;;;;;;;8.80;6.90;;;;;;;-0.45;100.00;95359.92;105700;1295;34481;-89
2022/12/10 06:10:13;;;;;;;8.90;6.50;;;;;;;-0.41;100.00;95352.30;105647;1303;65047;-89
2022/12/10 06:12:48;;;;;;;9.80;7.30;;;;;;;-0.39;100.00;95358.35;105752;1302;22475;-89
2022/12/10 06:15:21;;;;;;;9.80;6.50;;;;;;;-0.44;100.00;95366.45;105772;1303;22512;-89
2022/12/10 06:17:54;;;;;;;10.80;7.60;;;;;;;-0.50;100.00;95376.20;105762;1292;25313;-88
2022/12/10 06:20:23;;;;;;;12.80;8.60;;;;;;;-0.53;100.00;95389.14;103911;1286;2606906;-89
2022/12/10 06:22:51;;;;;;;10.80;7.80;;;;;;;-0.52;100.00;95400.77;105731;1278;25248;-88
2022/12/10 06:25:20;;;;;;;12.10;8.10;;;;;;;-0.54;100.00;95408.34;105712;1288;22641;-90
2022/12/10 06:27:48;;;;;;;10.30;7.30;;;;;;;-0.55;100.00;95409.73;105758;1295;33444;-89
2022/12/10 06:30:18;;;;;;;9.70;6.90;;;;;;;-0.52;100.00;95410.02;104228;1300;2080238;-89
2022/12/10 06:32:50;;;;;;;11.00;7.10;;;;;;;-0.49;100.00;95416.30;105759;1304;22526;-90
2022/12/10 06:35:21;;;;;;;11.80;8.10;;;;;;;-0.47;100.00;95416.02;105607;1288;26591;-89
2022/12/10 06:37:55;;;;;;;11.30;7.70;;;;;;;-0.45;100.00;95412.67;105602;1300;48975;-88
2022/12/10 06:40:23;;;;;;;10.90;7.40;;;;;;;-0.40;100.00;95413.13;105501;1303;59269;-89
2022/12/10 06:42:52;;;;;;;10.50;7.70;;;;;;;-0.36;100.00;95417.81;105708;1303;25250;-88
2022/12/10 06:45:24;;;;;;;10.20;6.50;;;;;;;-0.32;100.00;95435.88;105795;1303;22470;-88
2022/12/10 06:47:57;;;;;;;12.30;9.10;;;;;;;-0.31;100.00;95443.45;105686;1302;59116;-88
2022/12/10 06:50:34;;;;;;;12.00;7.50;;;;;;;-0.30;100.00;95451.79;105748;1279;22470;-89
2022/12/10 06:53:05;;;;;;;14.60;9.10;;;;;;;-0.33;100.00;95463.16;105772;1302;22465;-88
2022/12/10 06:55:38;;;;;;;14.40;9.40;;;;;;;-0.39;100.00;95473.59;105765;1296;22466;-88
2022/12/10 06:58:08;;;;;;;12.60;7.80;;;;;;;-0.43;100.00;95476.95;105638;1295;46070;-88
2022/12/10 07:00:35;;;;;;;;;;;;;;;-0.47;100.00;95477.09;105525;1304;25281;-89
2022/12/10 07:03:06;;;;;;;13.30;8.50;;;;;;;-0.49;100.00;95481.91;105408;1291;25402;-89
2022/12/10 07:05:37;;;;;;;16.70;10.10;;;;;;;-0.52;100.00;95480.50;105423;1281;25273;-89
2022/12/10 07:08:08;;;;;;;21.10;12.10;;;;;;;-0.53;100.00;95477.60;102710;1298;2018159;-90
2022/12/10 07:10:40;;;;;;;19.50;11.20;;;;;;;-0.49;100.00;95471.19;105751;1289;23953;-89
2022/12/10 07:13:11;;;;;;;18.10;11.60;;;;;;;-0.45;100.00;95465.30;105788;1304;22513;-88
2022/12/10 07:15:50;;;;;;;13.90;9.20;;;;;;;-0.39;100.00;95454.84;105783;1304;24924;-88
2022/12/10 07:18:19;;;;;;;12.00;8.60;;;;;;;-0.36;100.00;95448.48;102413;1304;2589596;-88
2022/12/10 07:20:48;;;;;;;11.90;7.30;;;;;;;-0.30;100.00;95453.03;105789;1304;22499;-88
2022/12/10 07:23:16;;;;;;;11.10;6.60;;;;;;;-0.26;100.00;95457.22;105743;1302;22555;-88
2022/12/10 07:25:45;;;;;;;11.30;7.60;;;;;;;-0.22;100.00;95460.24;105779;1303;25606;-88
2022/12/10 07:28:14;;;;;;;11.30;6.50;;;;;;;-0.17;100.00;95461.77;103936;1304;2327040;-89
2022/12/10 07:30:44;;;;;;;9.70;6.70;;;;;;;-0.12;100.00;95455.92;105783;1304;22462;-88
2022/12/10 07:33:12;;;;;;;11.50;8.20;;;;;;;-0.09;100.00;95453.25;105745;1294;22484;-89
2022/12/10 07:35:41;;;;;;;12.20;8.40;;;;;;;-0.05;100.00;95453.71;105802;1302;22464;-89
2022/12/10 07:38:12;;;;;;;12.10;8.00;;;;;;;-0.01;100.00;95451.79;104248;1303;2043353;-88
2022/12/10 07:40:44;;;;;;;13.30;9.80;;;;;;;0.02;100.00;95453.20;105803;1297;22500;-89
2022/12/10 07:43:15;;;;;;;11.30;8.20;;;;;;;-0.01;100.00;95454.13;105783;1303;22508;-88
2022/12/10 07:45:51;;;;;;;13.70;10.10;;;;;;;-0.04;100.00;95455.87;105781;1278;23263;-88
2022/12/10 07:48:21;;;;;;;15.00;10.40;;;;;;;-0.07;100.00;95454.31;103698;1301;2629830;-88
2022/12/10 07:50:59;;;;;;;16.60;10.20;;;;;;;-0.09;100.00;95449.66;105533;1304;22927;-88
2022/12/10 07:53:35;;;;;;;18.40;12.80;;;;;;;-0.12;100.00;95442.69;105547;1305;24264;-89
2022/12/10 07:56:08;;;;;;;18.20;13.80;;;;;;;-0.15;100.00;95445.70;105476;1300;22480;-88
2022/12/10 07:58:41;;;;;;;17.00;11.10;;;;;;;-0.15;100.00;95452.73;105458;1304;46967;-88
2022/12/10 08:01:15;;;;;;;14.30;9.70;;;;;;;-0.13;100.00;95457.69;105522;1274;22457;-89
2022/12/10 08:03:44;;;;;;;25.90;13.10;;;;;;;-0.12;100.00;95455.09;105519;1304;22472;-89
2022/12/10 08:06:21;;;;;;;22.90;12.70;;;;;;;-0.11;100.00;95458.23;105521;1303;22554;-89
2022/12/10 08:08:50;;;;;;;24.00;12.00;;;;;;;-0.11;100.00;95453.59;105425;1297;63715;-89
2022/12/10 08:11:20;;;;;;;23.10;13.60;;;;;;;-0.11;100.00;95463.80;105539;1290;22461;-89
2022/12/10 08:13:54;;;;;;;21.20;12.30;;;;;;;-0.13;100.00;95479.72;105552;1301;22524;-90
2022/12/10 08:16:25;;;;;;;20.60;11.90;;;;;;;-0.16;100.00;95482.27;105551;1294;22447;-89
2022/12/10 08:18:55;;;;;;;16.40;11.40;;;;;;;-0.21;100.00;95484.13;104251;1304;1773748;-89
2022/12/10 08:21:26;;;;;;;17.70;10.50;;;;;;;-0.23;100.00;95488.58;105509;1288;22468;-87
2022/12/10 08:24:00;;;;;;;16.50;11.20;;;;;;;-0.21;100.00;95490.16;105562;1289;26451;-89
2022/12/10 08:26:30;;;;;;;15.00;10.60;;;;;;;-0.15;100.00;95490.61;105549;1295;24267;-88
2022/12/10 08:29:09;;;;;;;16.60;10.70;;;;;;;-0.10;100.00;95494.35;105518;1281;72168;-88
2022/12/10 08:31:38;;;;;;;15.10;10.10;;;;;;;-0.06;100.00;95493.41;105565;1288;25008;-90
2022/12/10 08:34:17;;;;;;;17.00;11.20;;;;;;;-0.02;100.00;95501.42;105546;1290;22497;-88
2022/12/10 08:36:49;;;;;;;17.20;11.50;;;;;;;0.03;100.00;95503.65;105594;1288;22464;-89
2022/12/10 08:39:18;;;;;;;16.90;11.20;;;;;;;0.10;100.00;95503.59;105453;1281;58698;-88
2022/12/10 08:41:49;;;;;;;14.40;10.20;;;;;;;0.16;100.00;95503.13;105571;1290;22538;-89
2022/12/10 08:44:18;;;;;;;17.40;11.70;;;;;;;0.19;100.00;95496.37;105539;1291;24279;-89
2022/12/10 08:46:56;;;;;;;17.60;11.80;;;;;;;0.20;100.00;95498.30;105555;1288;22609;-90
2022/12/10 08:49:25;;;;;;;17.80;12.30;;;;;;;0.17;100.00;95497.39;105383;1284;72263;-88
2022/12/10 08:51:54;;;;;;;17.70;11.90;;;;;;;0.15;100.00;95500.23;105533;1288;22497;-89
2022/12/10 08:54:23;;;;;;;25.40;17.50;;;;;;;0.10;100.00;95506.71;105565;1288;22470;-91
2022/12/10 08:56:52;;;;;;;26.00;17.30;;;;;;;0.07;100.00;95502.98;105555;1290;22500;-89
2022/12/10 08:59:23;;;;;;;30.70;21.30;;;;;;;0.08;100.00;95501.37;105437;1287;125458;-90
2022/12/10 09:01:54;;;;;;;35.70;21.80;;;;;;;0.13;100.00;95495.70;105546;1280;22475;-87
2022/12/10 09:04:24;;;;;;;29.40;18.40;;;;;;;0.21;100.00;95495.88;105604;1280;22534;-89
2022/12/10 09:06:52;;;;;;;27.90;17.30;;;;;;;0.24;100.00;95490.02;105546;1296;22509;-88
2022/12/10 09:09:24;;;;;;;41.40;28.30;;;;;;;0.18;100.00;95485.98;105513;1288;25926;-86
2022/12/10 09:11:55;;;;;;;30.00;20.10;;;;;;;0.12;100.00;95485.52;105541;1290;22474;-87
2022/12/10 09:14:27;;;;;;;34.60;18.60;;;;;;;0.09;100.00;95479.33;105538;1281;25377;-89
2022/12/10 09:16:57;;;;;;;29.50;17.20;;;;;;;0.06;100.00;95479.61;105560;1290;22496;-86
2022/12/10 09:19:26;;;;;;;21.90;17.00;;;;;;;0.03;100.00;95474.67;105514;1290;25853;-87
2022/12/10 09:21:54;;;;;;;30.30;20.40;;;;;;;0.01;100.00;95470.84;105583;1290;22531;-86
2022/12/10 09:24:23;;;;;;;25.50;16.70;;;;;;;-0.02;100.00;95466.00;105544;1288;22470;-88
2022/12/10 09:26:52;;;;;;;25.50;18.20;;;;;;;-0.07;100.00;95465.58;105550;1288;22505;-88
2022/12/10 09:29:22;;;;;;;27.50;21.10;;;;;;;-0.11;100.00;95462.20;105517;1290;22453;-87
2022/12/10 09:31:54;;;;;;;24.80;19.80;;;;;;;-0.10;100.00;95461.89;105537;1304;22539;-85
2022/12/10 09:34:23;;;;;;;30.10;25.10;;;;;;;-0.09;100.00;95468.99;105517;1304;22455;-84
2022/12/10 09:36:52;;;;;;;30.80;26.90;;;;;;;-0.08;100.00;95472.34;105537;1304;25254;-87
2022/12/10 09:39:22;;;;;;;21.10;17.20;;;;;;;-0.06;100.00;95476.16;105503;1288;24305;-83
2022/12/10 09:42:12;;;;;;;27.40;21.20;;;;;;;-0.04;100.00;95473.27;105529;1287;25207;-84
2022/12/10 09:44:54;;;;;;;26.50;21.80;;;;;;;-0.01;100.00;95473.31;105549;1281;26429;-85
2022/12/10 09:47:29;;;;;;;19.80;14.90;;;;;;;-0.01;100.00;95471.23;105526;1288;22513;-84
2022/12/10 09:50:03;;;;;;;16.60;12.10;;;;;;;-0.02;100.00;95473.20;105487;1296;22514;-85
2022/12/10 09:52:41;;;;;;;17.40;12.70;;;;;;;-0.00;100.00;95473.90;105561;1291;25267;-84
2022/12/10 09:55:14;;;;;;;16.60;12.30;;;;;;;0.06;100.00;95475.33;105573;1288;22455;-84
2022/12/10 09:57:46;;;;;;;20.50;14.20;;;;;;;0.12;100.00;95472.98;105555;1281;24271;-85
2022/12/10 10:00:25;;;;;;;18.90;13.10;;;;;;;0.19;100.00;95468.55;105581;1286;25242;-84
2022/12/10 10:02:58;;;;;;;18.80;13.20;;;;;;;0.24;100.00;95465.41;105784;1294;22547;-86
2022/12/10 10:05:31;;;;;;;20.00;14.60;;;;;;;0.28;100.00;95468.71;105765;1278;22459;-86
2022/12/10 10:08:05;;;;;;;17.10;11.80;;;;;;;0.30;100.00;95461.91;105727;1292;50669;-87
2022/12/10 10:10:37;;;;;;;18.90;12.90;;;;;;;0.28;100.00;95461.41;105735;1288;25244;-86
2022/12/10 10:13:25;;;;;;;17.40;13.50;;;;;;;0.28;100.00;95462.50;105786;1286;22507;-86
2022/12/10 10:15:55;;;;;;;19.30;14.30;;;;;;;0.27;100.00;95470.62;105729;1288;25028;-86
2022/12/10 10:18:33;;;;;;;21.70;16.40;;;;;;;0.27;100.00;95471.87;105689;1294;61977;-87
2022/12/10 10:21:04;;;;;;;18.60;14.40;;;;;;;0.20;100.00;95471.21;105724;1281;25212;-86
2022/12/10 10:23:33;;;;;;;20.20;13.80;;;;;;;0.19;100.00;95465.63;105811;1288;22511;-87
2022/12/10 10:26:04;;;;;;;19.50;14.10;;;;;;;0.21;100.00;95464.86;105774;1286;22481;-86
2022/12/10 10:28:34;;;;;;;26.70;16.40;;;;;;;0.24;100.00;95467.86;105679;1304;81340;-86
2022/12/10 10:31:13;;;;;;;23.00;16.60;;;;;;;0.28;100.00;95471.05;105829;1286;24250;-86
2022/12/10 10:33:52;;;;;;;26.50;19.30;;;;;;;0.29;100.00;95471.35;105759;1288;22523;-85
2022/12/10 10:36:26;;;;;;;22.60;15.80;;;;;;;0.30;100.00;95475.63;105724;1278;22491;-84
2022/12/10 10:38:56;;;;;;;18.20;13.60;;;;;;;0.29;100.00;95475.60;105633;1285;65494;-85
2022/12/10 10:41:26;;;;;;;27.60;14.20;;;;;;;0.28;100.00;95465.02;105793;1285;22462;-84
2022/12/10 10:44:03;;;;;;;23.20;16.00;;;;;;;0.28;100.00;95459.69;105763;1286;22527;-84
2022/12/10 10:46:39;;;;;;;23.80;14.90;;;;;;;0.27;100.00;95460.29;105782;1294;22481;-85
2022/12/10 10:49:22;;;;;;;25.80;17.10;;;;;;;0.26;100.00;95457.25;105763;1288;23819;-87
2022/12/10 10:51:50;;;;;;;33.50;18.10;;;;;;;0.28;100.00;95461.50;105851;1288;22445;-86
2022/12/10 10:54:34;;;;;;;35.60;17.60;;;;;;;0.28;100.00;95461.66;105858;1286;22452;-87
2022/12/10 10:57:06;;;;;;;28.90;16.80;;;;;;;0.27;100.00;95456.58;105833;1272;22464;-86
2022/12/10 10:59:36;;;;;;;40.10;20.00;;;;;;;0.25;100.00;95461.98;105562;1288;123290;-86
2022/12/10 11:02:20;;;;;;;46.10;27.80;;;;;;;0.25;100.00;95461.78;105840;1285;23818;-85
2022/12/10 11:04:51;;;;;;;50.70;28.30;;;;;;;0.26;100.00;95464.03;105828;1286;22518;-87
2022/12/10 11:07:27;;;;;;;81.40;49.60;;;;;;;0.28;100.00;95464.06;105840;1295;23311;-86
2022/12/10 11:09:56;;;;;;;69.90;40.30;;;;;;;0.29;100.00;95466.22;105717;1288;22619;-87
2022/12/10 11:12:36;;;;;;;22.10;13.70;;;;;;;0.25;100.00;95469.49;105718;1287;22485;-86
2022/12/10 11:15:28;;;;;;;;;;;;;;;0.17;100.00;95464.34;105776;1285;22511;-87
2022/12/10 11:17:58;;;;;;;47.80;28.50;;;;;;;0.17;100.00;95461.27;105532;1296;50011;-87
2022/12/10 11:20:29;;;;;;;26.00;17.00;;;;;;;0.23;100.00;95462.48;105425;1298;96504;-88
2022/12/10 11:22:59;;;;;;;27.90;15.90;;;;;;;0.26;100.00;95463.83;105687;1302;22502;-86
2022/12/10 11:25:42;;;;;;;25.80;16.30;;;;;;;0.28;100.00;95461.61;105663;1284;22584;-86
2022/12/10 11:28:33;;;;;;;25.90;18.60;;;;;;;0.30;100.00;95460.02;105677;1303;22773;-86
2022/12/10 11:31:13;;;;;;;24.10;15.90;;;;;;;0.30;100.00;95453.20;105622;1305;24035;-87
2022/12/10 11:33:48;;;;;;;30.80;19.00;;;;;;;0.30;100.00;95447.27;105591;1280;25388;-87
2022/12/10 11:36:31;;;;;;;27.60;17.10;;;;;;;0.30;100.00;95444.75;105531;1305;22553;-87
2022/12/10 11:39:12;;;;;;;28.40;18.00;;;;;;;0.26;100.00;95445.02;102873;1304;1844940;-88
2022/12/10 11:41:50;;;;;;;30.20;18.80;;;;;;;0.22;100.00;95451.01;105708;1276;23742;-87